Aérodrome :
LOGIN :

S'inscrire | Disclaimer

   EN    FR    IT 

 










Légende :    VFR   VFR Marginal   IFR   IFR Intensif   IFR Très Intensif
Visi : 
Plafond : 
>= 8 km
>= 3000ft
5 à 8 km
1000 à 3000 ft
1500m à 5 km
500 à 1000 ft
800 à 1500m
200 à 500 ft
< 800m
< 200 ft
Symboles :   Orages  Brouillard  Fortes neiges  Fortes précipitations  Vent > 20 kt
SIGMETs :   Divers  Orages  Givrage  Turbulence  Onde Orograph.  Cendres Volcan.







- Altitude de l'aérodrome : 1300 ft
- Code IATA : LIG
- Voir les cartes d'approche


LFBL - Limoges

DERNIER METAR :
  • 221930Z AUTO 19005KT CAVOK 18/10 Q1024 NOSIG

METARs EXPIRÉS :
  • 221900Z AUTO 19007KT CAVOK 18/10 Q1023 NOSIG
  • 221830Z AUTO 19005KT 9999 BKN036 OVC047 18/10 Q1023 NOSIG
  • 221800Z AUTO 20008KT 9999 OVC035 19/10 Q1023 NOSIG
  • 221730Z AUTO 21008KT 9999 OVC035 19/10 Q1023 NOSIG
  • 221700Z AUTO 21009KT 9999 OVC038 19/10 Q1023 NOSIG

TAF TAF LFBL
Valide du 22 à 18h jusqu'au 23 à 18h UTC


221700Z 2218/2318 21010KT CAVOK
BECMG 2304/2307 BKN009
TEMPO 2307/2318 BKN003
PROB40
TEMPO 2313/2318 24015G30KT 2000 RADZ VV///
ATIS : +33 5 55 48 40 37
Pas de NOTAMs connus pour ce terrain.



MET'MAP, la Météo Aéronautique d'un coup d'oeil ! - Copyright ORBIFLY Décembre 2007 - Disclaimer

ORBIFLY MET'MAP TEAM :

Programmation & Développement : Alexandra Zaïnal
Conception & Développement : Baudouin d'Aumeries
Co-Programmation & Développement : Marc-Olivier Méhu
Soutien technique & logistique : Manuel Goepfert

Contact : metmap@orbifly.com




SOURCES & CREDITS :

   NOAA